地図

経路データ

SID SEASON NUMBER BASIN SUBBASIN NAME ISO_TIME NATURE LAT LON WMO_WIND WMO_PRES WMO_AGENCY TRACK_TYPE DIST2LAND LANDFALL IFLAG USA_AGENCY USA_ATCF_ID USA_LAT USA_LON USA_RECORD USA_STATUS USA_WIND USA_PRES USA_SSHS USA_R34_NE USA_R34_SE USA_R34_SW USA_R34_NW USA_R50_NE USA_R50_SE USA_R50_SW USA_R50_NW USA_R64_NE USA_R64_SE USA_R64_SW USA_R64_NW USA_POCI USA_ROCI USA_RMW USA_EYE TOKYO_LAT TOKYO_LON TOKYO_GRADE TOKYO_WIND TOKYO_PRES TOKYO_R50_DIR TOKYO_R50_LONG TOKYO_R50_SHORT TOKYO_R30_DIR TOKYO_R30_LONG TOKYO_R30_SHORT TOKYO_LAND CMA_LAT CMA_LON CMA_CAT CMA_WIND CMA_PRES HKO_LAT HKO_LON HKO_CAT HKO_WIND HKO_PRES NEWDELHI_LAT NEWDELHI_LON NEWDELHI_GRADE NEWDELHI_WIND NEWDELHI_PRES NEWDELHI_CI NEWDELHI_DP NEWDELHI_POCI REUNION_LAT REUNION_LON REUNION_TYPE REUNION_WIND REUNION_PRES REUNION_TNUM REUNION_CI REUNION_RMW REUNION_R34_NE REUNION_R34_SE REUNION_R34_SW REUNION_R34_NW REUNION_R50_NE REUNION_R50_SE REUNION_R50_SW REUNION_R50_NW REUNION_R64_NE REUNION_R64_SE REUNION_R64_SW REUNION_R64_NW BOM_LAT BOM_LON BOM_TYPE BOM_WIND BOM_PRES BOM_TNUM BOM_CI BOM_RMW BOM_R34_NE BOM_R34_SE BOM_R34_SW BOM_R34_NW BOM_R50_NE BOM_R50_SE BOM_R50_SW BOM_R50_NW BOM_R64_NE BOM_R64_SE BOM_R64_SW BOM_R64_NW BOM_ROCI BOM_POCI BOM_EYE BOM_POS_METHOD BOM_PRES_METHOD NADI_LAT NADI_LON NADI_CAT NADI_WIND NADI_PRES WELLINGTON_LAT WELLINGTON_LON WELLINGTON_WIND WELLINGTON_PRES DS824_LAT DS824_LON DS824_STAGE DS824_WIND DS824_PRES TD9636_LAT TD9636_LON TD9636_STAGE TD9636_WIND TD9636_PRES TD9635_LAT TD9635_LON TD9635_WIND TD9635_PRES TD9635_ROCI NEUMANN_LAT NEUMANN_LON NEUMANN_CLASS NEUMANN_WIND NEUMANN_PRES MLC_LAT MLC_LON MLC_CLASS MLC_WIND MLC_PRES USA_GUST BOM_GUST BOM_GUST_PER REUNION_GUST REUNION_GUST_PER USA_SEAHGT USA_SEARAD_NE USA_SEARAD_SE USA_SEARAD_SW USA_SEARAD_NW STORM_SPEED STORM_DIR
1954192N32279 1954 30 NA NA NOT_NAMED 1954-07-10 12:00:00 TS 31.8000 -81.0000 35 hurdat_atl main 11 9 O_____________ hurdat_atl AL041954 31.8000 -81.0000 TS 35 0 6 69
1954192N32279 1954 30 NA NA NOT_NAMED 1954-07-10 15:00:00 TS 31.8977 -80.6951 main 18 18 P_____________ AL041954 31.8977 -80.6951 TS 35 0 5 69
1954192N32279 1954 30 NA NA NOT_NAMED 1954-07-10 18:00:00 TS 32.0000 -80.4000 35 hurdat_atl main 35 35 O_____________ hurdat_atl AL041954 32.0000 -80.4000 TS 35 0 5 67
1954192N32279 1954 30 NA NA NOT_NAMED 1954-07-10 21:00:00 TS 32.1073 -80.1150 main 48 43 P_____________ AL041954 32.1073 -80.1150 TS 37 0 5 69
1954192N32279 1954 30 NA NA NOT_NAMED 1954-07-11 00:00:00 TS 32.2000 -79.8000 40 hurdat_atl main 48 48 O_____________ hurdat_atl AL041954 32.2000 -79.8000 TS 40 0 6 76
1954192N32279 1954 30 NA NA NOT_NAMED 1954-07-11 03:00:00 TS 32.2575 -79.4149 main 64 64 P_____________ AL041954 32.2575 -79.4149 TS 40 0 7 82
1954192N32279 1954 30 NA NA NOT_NAMED 1954-07-11 06:00:00 TS 32.3000 -79.0000 40 hurdat_atl main 86 86 O_____________ hurdat_atl AL041954 32.3000 -79.0000 TS 40 0 7 83
1954192N32279 1954 30 NA NA NOT_NAMED 1954-07-11 09:00:00 TS 32.3424 -78.5999 main 108 107 P_____________ AL041954 32.3424 -78.5999 TS 42 0 7 82
1954192N32279 1954 30 NA NA NOT_NAMED 1954-07-11 12:00:00 TS 32.4000 -78.2000 45 hurdat_atl main 129 129 O_____________ hurdat_atl AL041954 32.4000 -78.2000 TS 45 0 7 78
1954192N32279 1954 30 NA NA NOT_NAMED 1954-07-11 15:00:00 TS 32.4849 -77.7999 main 152 149 P_____________ AL041954 32.4849 -77.7999 TS 45 0 7 74
1954192N32279 1954 30 NA NA NOT_NAMED 1954-07-11 18:00:00 TS 32.6000 -77.4000 45 hurdat_atl main 155 153 O_____________ hurdat_atl AL041954 32.6000 -77.4000 TS 45 0 7 70
1954192N32279 1954 30 NA NA NOT_NAMED 1954-07-11 21:00:00 TS 32.7349 -76.9999 main 162 153 P_____________ AL041954 32.7349 -76.9999 TS 45 0 7 66
1954192N32279 1954 30 NA NA NOT_NAMED 1954-07-12 00:00:00 TS 32.9000 -76.6000 45 hurdat_atl main 171 171 O_____________ hurdat_atl AL041954 32.9000 -76.6000 TS 45 0 7 63
1954192N32279 1954 30 NA NA NOT_NAMED 1954-07-12 03:00:00 TS 33.0772 -76.2146 main 180 165 P_____________ AL041954 33.0772 -76.2146 TS 45 0 8 59
1954192N32279 1954 30 NA NA NOT_NAMED 1954-07-12 06:00:00 TS 33.3000 -75.8000 45 hurdat_atl main 168 162 O_____________ hurdat_atl AL041954 33.3000 -75.8000 TS 45 0 9 57
1954192N32279 1954 30 NA NA NOT_NAMED 1954-07-12 09:00:00 TS 33.5700 -75.3148 main 164 163 P_____________ AL041954 33.5700 -75.3148 TS 45 0 10 54
1954192N32279 1954 30 NA NA NOT_NAMED 1954-07-12 12:00:00 TS 33.9000 -74.8000 45 hurdat_atl main 176 176 O_____________ hurdat_atl AL041954 33.9000 -74.8000 TS 45 0 11 50
1954192N32279 1954 30 NA NA NOT_NAMED 1954-07-12 15:00:00 TS 34.2774 -74.2923 main 192 189 P_____________ AL041954 34.2774 -74.2923 TS 45 0 12 46
1954192N32279 1954 30 NA NA NOT_NAMED 1954-07-12 18:00:00 TS 34.7000 -73.8000 45 hurdat_atl main 196 196 O_____________ hurdat_atl AL041954 34.7000 -73.8000 TS 45 0 12 42
1954192N32279 1954 30 NA NA NOT_NAMED 1954-07-12 21:00:00 TS 35.1423 -73.3346 main 213 209 P_____________ AL041954 35.1423 -73.3346 TS 45 0 12 39
1954192N32279 1954 30 NA NA NOT_NAMED 1954-07-13 00:00:00 TS 35.6000 -72.9000 45 hurdat_atl main 235 234 O_____________ hurdat_atl AL041954 35.6000 -72.9000 TS 45 0 12 37
1954192N32279 1954 30 NA NA NOT_NAMED 1954-07-13 03:00:00 TS 36.0648 -72.4848 main 271 271 P_____________ AL041954 36.0648 -72.4848 TS 42 0 11 36
1954192N32279 1954 30 NA NA NOT_NAMED 1954-07-13 06:00:00 TS 36.5000 -72.1000 40 hurdat_atl main 314 314 O_____________ hurdat_atl AL041954 36.5000 -72.1000 TS 40 0 10 37
1954192N32279 1954 30 NA NA NOT_NAMED 1954-07-13 09:00:00 TS 36.8648 -71.7419 main 336 334 P_____________ AL041954 36.8648 -71.7419 TS 40 0 9 39
1954192N32279 1954 30 NA NA NOT_NAMED 1954-07-13 12:00:00 TS 37.2000 -71.4000 40 hurdat_atl main 346 346 O_____________ hurdat_atl AL041954 37.2000 -71.4000 TS 40 0 9 39
1954192N32279 1954 30 NA NA NOT_NAMED 1954-07-13 15:00:00 TS 37.5499 -71.0497 main 362 355 P_____________ AL041954 37.5499 -71.0497 TS 37 0 9 38
1954192N32279 1954 30 NA NA NOT_NAMED 1954-07-13 18:00:00 TS 37.9000 -70.7000 35 hurdat_atl main 358 345 O_____________ hurdat_atl AL041954 37.9000 -70.7000 TS 35 0 9 38
1954192N32279 1954 30 NA NA NOT_NAMED 1954-07-13 21:00:00 TS 38.2502 -70.3507 main 335 328 P_____________ AL041954 38.2502 -70.3507 TS 35 0 9 38
1954192N32279 1954 30 NA NA NOT_NAMED 1954-07-14 00:00:00 TS 38.6000 -70.0000 35 hurdat_atl main 328 O_____________ hurdat_atl AL041954 38.6000 -70.0000 TS 35 0 9 38

IBTrACS Databaseについて

本データベースは、米国NOAAが公開する1842年以降の世界の熱帯低気圧のベストトラックデータアーカイブInternational Best Track Archive for Climate Stewardship (IBTrACS)を、ウェブで閲覧しやすい形式に変換したものです。

最終更新日:2021-11-26